Airport Name : Bradley Intl

Other Name : Bradley Intl

ICAO : KBDL

IATA : BDL

FAA : BDL

Latitude : 41.938889

Longitude : -72.683222

Country : United States

Local Date and Time : 7/21/2018 5:20:00 AM

 

TAF (Terminal Aerodrome Forecast)

KBDL 210739Z 2108/2212 00000KT P6SM FEW008 FM211200 12008KT P6SM FEW040 FM220000 08005KT P6SM OVC040 FM220200 07006KT P6SM VCSH OVC025

 

METAR (METeorological Aerodrome Report)

KBDL 210851Z 00000KT 10SM SCT250 15/14 A3014 RMK AO2 SLP205 T01500139 53003

KBDL 210751Z 00000KT 10SM FEW150 FEW250 14/14 A3013 RMK AO2 SLP201 T01440139

KBDL 210651Z 00000KT 10SM FEW150 FEW250 16/14 A3013 RMK AO2 SLP202 T01560144

KBDL 210551Z 17004KT 10SM FEW250 18/15 A3013 RMK AO2 SLP201 T01780150 10250 20178 58003